createdAt,value
2023-03-29T00:00:14.690Z,583.00
2023-03-29T00:04:14.938Z,562.00
2023-03-29T00:08:15.088Z,593.00
2023-03-29T00:12:15.367Z,637.00
2023-03-29T00:16:15.521Z,680.00
2023-03-29T00:20:15.640Z,705.00
2023-03-29T00:24:15.880Z,655.00
2023-03-29T00:28:16.105Z,666.00
2023-03-29T00:32:16.346Z,733.00
2023-03-29T00:36:16.545Z,716.00
2023-03-29T00:40:17.369Z,816.00
2023-03-29T00:44:16.964Z,768.00
2023-03-29T00:48:17.152Z,776.00
2023-03-29T00:52:17.504Z,793.00
2023-03-29T00:56:17.601Z,844.00
2023-03-29T01:00:17.727Z,860.00
2023-03-29T01:04:17.555Z,764.00
2023-03-29T01:08:17.501Z,712.00
2023-03-29T01:12:17.485Z,696.00
2023-03-29T01:16:17.603Z,684.00
2023-03-29T01:20:17.425Z,766.00
2023-03-29T01:24:17.362Z,737.00
2023-03-29T01:28:17.341Z,669.00
2023-03-29T01:32:17.342Z,608.00
2023-03-29T01:36:17.288Z,599.00
2023-03-29T01:40:17.359Z,627.00
2023-03-29T01:44:17.564Z,582.00
2023-03-29T01:48:17.746Z,596.00
2023-03-29T01:52:17.947Z,587.00
2023-03-29T01:56:17.912Z,605.00
2023-03-29T02:00:17.826Z,591.00
2023-03-29T02:04:17.800Z,603.00
2023-03-29T02:08:17.776Z,592.00
2023-03-29T02:12:17.769Z,625.00
2023-03-29T02:16:17.744Z,633.00
2023-03-29T02:20:17.760Z,642.00
2023-03-29T02:24:17.624Z,598.00
2023-03-29T02:28:17.898Z,613.00
2023-03-29T02:32:17.621Z,622.00
2023-03-29T02:36:17.656Z,606.00
2023-03-29T02:40:17.788Z,605.00
2023-03-29T02:44:17.954Z,628.00
2023-03-29T02:48:18.171Z,609.00
2023-03-29T02:52:18.384Z,608.00
2023-03-29T02:56:18.656Z,600.00
2023-03-29T03:00:18.845Z,597.00
2023-03-29T03:04:18.832Z,744.00
2023-03-29T03:08:18.790Z,655.00
2023-03-29T03:12:18.740Z,578.00
2023-03-29T03:16:18.796Z,654.00
2023-03-29T03:20:18.761Z,618.00
2023-03-29T03:24:18.789Z,590.00
2023-03-29T03:28:18.684Z,559.00
2023-03-29T03:32:18.630Z,546.00
2023-03-29T03:36:18.593Z,539.00
2023-03-29T03:40:18.603Z,624.00
2023-03-29T03:44:18.580Z,560.00
2023-03-29T03:48:18.584Z,608.00
2023-03-29T03:52:18.592Z,535.00
2023-03-29T03:56:19.434Z,561.00
2023-03-29T04:00:18.524Z,613.00
2023-03-29T04:04:18.537Z,655.00
2023-03-29T04:08:18.985Z,642.00
2023-03-29T04:12:18.472Z,646.00
2023-03-29T04:16:18.588Z,690.00
2023-03-29T04:20:18.423Z,862.00
2023-03-29T04:24:18.418Z,801.00
2023-03-29T04:28:18.419Z,861.00
2023-03-29T04:32:18.395Z,839.00
2023-03-29T04:36:18.414Z,758.00
2023-03-29T04:40:18.360Z,784.00
2023-03-29T04:44:18.344Z,673.00
2023-03-29T04:48:18.301Z,821.00
2023-03-29T04:52:18.265Z,1022.00
2023-03-29T04:56:18.346Z,1286.00
2023-03-29T05:00:18.176Z,1400.00
2023-03-29T05:04:18.233Z,1505.00
2023-03-29T05:08:18.079Z,1630.00
2023-03-29T05:12:18.019Z,1780.00
2023-03-29T05:16:18.022Z,1857.00
2023-03-29T05:20:17.987Z,1943.00
2023-03-29T05:24:17.914Z,2045.00
2023-03-29T05:28:17.821Z,2138.00
2023-03-29T05:32:17.755Z,2177.00
2023-03-29T05:36:17.886Z,2044.00
2023-03-29T05:40:18.010Z,2239.00
2023-03-29T05:44:18.515Z,2324.00
2023-03-29T05:48:17.848Z,2427.00
2023-03-29T05:52:19.485Z,2550.00
2023-03-29T05:56:18.483Z,2629.00
2023-03-29T06:00:18.173Z,2632.00
2023-03-29T06:04:18.586Z,2713.00
2023-03-29T06:08:18.502Z,2767.00
2023-03-29T06:12:18.222Z,2772.00
2023-03-29T06:16:18.266Z,2788.00
2023-03-29T06:20:18.221Z,2828.00
2023-03-29T06:24:18.187Z,2870.00
2023-03-29T06:28:18.213Z,2956.00
2023-03-29T06:32:18.296Z,2960.00
2023-03-29T06:36:18.289Z,3022.00
2023-03-29T06:40:18.061Z,3066.00
2023-03-29T06:44:18.157Z,3116.00
2023-03-29T06:48:18.530Z,3171.00
2023-03-29T06:52:18.542Z,3189.00
2023-03-29T06:56:18.173Z,3124.00
2023-03-29T07:00:18.135Z,3105.00
2023-03-29T07:04:18.663Z,3111.00
2023-03-29T07:08:18.127Z,3111.00
2023-03-29T07:12:18.519Z,3164.00
2023-03-29T07:16:18.220Z,3155.00
2023-03-29T07:20:18.496Z,3102.00
2023-03-29T07:24:18.306Z,3136.00
2023-03-29T07:28:19.036Z,3145.00
2023-03-29T07:32:18.690Z,3089.00
2023-03-29T07:36:18.761Z,3099.00
2023-03-29T07:40:19.070Z,3015.00
2023-03-29T07:44:19.516Z,3019.00
2023-03-29T07:48:18.829Z,2860.00
2023-03-29T07:52:18.769Z,2898.00
2023-03-29T07:56:18.680Z,2838.00
2023-03-29T08:00:18.642Z,2874.00
2023-03-29T08:04:18.742Z,2865.00
2023-03-29T08:08:18.497Z,2860.00
2023-03-29T08:12:18.350Z,2909.00
2023-03-29T08:16:18.331Z,2865.00
2023-03-29T08:20:18.202Z,2828.00
2023-03-29T08:24:20.821Z,2858.00
2023-03-29T08:28:18.072Z,2886.00
2023-03-29T08:32:17.980Z,2895.00
2023-03-29T08:36:19.558Z,2889.00
2023-03-29T08:40:17.779Z,2999.00
2023-03-29T08:44:17.672Z,2950.00
2023-03-29T08:48:18.081Z,2972.00
2023-03-29T08:52:18.587Z,2955.00
2023-03-29T08:56:17.689Z,2949.00
2023-03-29T09:00:17.870Z,2979.00
2023-03-29T09:04:17.725Z,2958.00
2023-03-29T09:08:18.051Z,2883.00
2023-03-29T09:12:17.570Z,2965.00
2023-03-29T09:16:18.118Z,2918.00
2023-03-29T09:20:17.427Z,2940.00
2023-03-29T09:24:17.329Z,2912.00
2023-03-29T09:28:17.597Z,2986.00
2023-03-29T09:32:17.137Z,2978.00
2023-03-29T09:36:17.162Z,3164.00
2023-03-29T09:40:17.109Z,3264.00
2023-03-29T09:44:29.821Z,3318.00
2023-03-29T09:48:18.061Z,3281.00
2023-03-29T09:52:17.066Z,3213.00
2023-03-29T09:56:16.884Z,3121.00
2023-03-29T10:00:17.102Z,3139.00
2023-03-29T10:04:17.084Z,3037.00
2023-03-29T10:08:18.929Z,3025.00
2023-03-29T10:12:17.116Z,2984.00
2023-03-29T10:16:16.913Z,2960.00
2023-03-29T10:20:16.695Z,2963.00
2023-03-29T10:24:17.158Z,2910.00
2023-03-29T10:28:16.583Z,2885.00
2023-03-29T10:32:16.626Z,2853.00
2023-03-29T10:36:16.586Z,2901.00
2023-03-29T10:40:16.605Z,2844.00
2023-03-29T10:44:16.264Z,2800.00
2023-03-29T10:48:16.208Z,2781.00
2023-03-29T10:52:16.106Z,2788.00
2023-03-29T10:56:16.087Z,2759.00
2023-03-29T11:00:15.951Z,2742.00
2023-03-29T11:04:15.847Z,2647.00
2023-03-29T11:08:15.943Z,2675.00
2023-03-29T11:12:16.620Z,2658.00
2023-03-29T11:16:16.162Z,2652.00
2023-03-29T11:20:16.040Z,2590.00
2023-03-29T11:24:16.065Z,2580.00
2023-03-29T11:28:16.226Z,2615.00
2023-03-29T11:32:16.113Z,2425.00
2023-03-29T11:36:16.666Z,2414.00
2023-03-29T11:40:16.229Z,2296.00
2023-03-29T11:44:16.458Z,2469.00
2023-03-29T11:48:16.441Z,2359.00
2023-03-29T11:52:16.563Z,2261.00
2023-03-29T11:56:24.193Z,2206.00
2023-03-29T12:00:16.616Z,2292.00
2023-03-29T12:04:16.682Z,2383.00
2023-03-29T12:08:16.494Z,2339.00
2023-03-29T12:12:16.407Z,2374.00
2023-03-29T12:16:16.352Z,2387.00
2023-03-29T12:20:16.164Z,2296.00
2023-03-29T12:24:16.104Z,2310.00
2023-03-29T12:28:17.630Z,2190.00
2023-03-29T12:32:16.001Z,2146.00
2023-03-29T12:36:16.001Z,2125.00
2023-03-29T12:40:15.899Z,2103.00
2023-03-29T12:44:15.781Z,2116.00
2023-03-29T12:48:15.720Z,2166.00
2023-03-29T12:52:15.721Z,2104.00
2023-03-29T12:56:15.671Z,2067.00
2023-03-29T13:00:15.653Z,2090.00
2023-03-29T13:04:15.589Z,2069.00
2023-03-29T13:08:15.560Z,2001.00
2023-03-29T13:12:25.677Z,1992.00
2023-03-29T13:16:15.555Z,2012.00
2023-03-29T13:20:15.378Z,2064.00
2023-03-29T13:24:15.281Z,2030.00
2023-03-29T13:28:15.202Z,2070.00
2023-03-29T13:32:15.105Z,2017.00
2023-03-29T13:36:15.047Z,1929.00
2023-03-29T13:40:14.909Z,2033.00
2023-03-29T13:44:14.827Z,2047.00
2023-03-29T13:48:14.759Z,2009.00
2023-03-29T13:52:14.642Z,1904.00
2023-03-29T13:56:14.676Z,1909.00
2023-03-29T14:00:14.699Z,1962.00
2023-03-29T14:04:14.805Z,1961.00
2023-03-29T14:08:14.880Z,1992.00
2023-03-29T14:12:14.932Z,1964.00
2023-03-29T14:16:15.044Z,2003.00
2023-03-29T14:20:15.090Z,2008.00
2023-03-29T14:24:15.268Z,1936.00
2023-03-29T14:28:15.314Z,1906.00
2023-03-29T14:32:15.467Z,1949.00
2023-03-29T14:36:15.522Z,1981.00
2023-03-29T14:40:15.611Z,1987.00
2023-03-29T14:44:15.676Z,2005.00
2023-03-29T14:48:15.867Z,1884.00
2023-03-29T14:52:15.895Z,1903.00
2023-03-29T14:56:16.026Z,1954.00
2023-03-29T15:00:16.172Z,1955.00
2023-03-29T15:04:16.228Z,1884.00
2023-03-29T15:08:16.309Z,1920.00
2023-03-29T15:12:16.377Z,1955.00
2023-03-29T15:16:16.528Z,1948.00
2023-03-29T15:20:16.733Z,1948.00
2023-03-29T15:24:16.675Z,1971.00
2023-03-29T15:28:16.754Z,1988.00
2023-03-29T15:32:16.841Z,1924.00
2023-03-29T15:36:17.058Z,1941.00
2023-03-29T15:40:17.188Z,1943.00
2023-03-29T15:44:17.203Z,1916.00
2023-03-29T15:48:17.331Z,1914.00
2023-03-29T15:52:17.498Z,1891.00
2023-03-29T15:56:17.608Z,1888.00
2023-03-29T16:00:17.669Z,1898.00
2023-03-29T16:04:17.785Z,1870.00
2023-03-29T16:08:17.892Z,1911.00
2023-03-29T16:12:17.935Z,1887.00
2023-03-29T16:16:18.075Z,1893.00
2023-03-29T16:20:18.149Z,1838.00
2023-03-29T16:24:18.177Z,1836.00
2023-03-29T16:28:18.278Z,1866.00
2023-03-29T16:32:18.369Z,1897.00
2023-03-29T16:36:18.400Z,1919.00
2023-03-29T16:40:18.385Z,1872.00
2023-03-29T16:44:20.753Z,1844.00
2023-03-29T16:48:18.412Z,1887.00
2023-03-29T16:52:18.327Z,1934.00
2023-03-29T16:56:19.248Z,1927.00
2023-03-29T17:00:18.178Z,1898.00
2023-03-29T17:04:18.136Z,1901.00
2023-03-29T17:08:18.013Z,1874.00
2023-03-29T17:12:18.142Z,1854.00
2023-03-29T17:16:18.227Z,1818.00
2023-03-29T17:20:18.164Z,1774.00
2023-03-29T17:24:18.138Z,1770.00
2023-03-29T17:28:18.108Z,1695.00
2023-03-29T17:32:18.039Z,1661.00
2023-03-29T17:36:18.028Z,1560.00
2023-03-29T17:40:17.951Z,1550.00
2023-03-29T17:44:17.916Z,1432.00
2023-03-29T17:48:17.929Z,1441.00
2023-03-29T17:52:17.924Z,1443.00
2023-03-29T17:56:17.957Z,1418.00
2023-03-29T18:00:17.941Z,1411.00
2023-03-29T18:04:17.957Z,1367.00
2023-03-29T18:08:17.921Z,1348.00
2023-03-29T18:12:17.950Z,1317.00
2023-03-29T18:16:17.990Z,1305.00
2023-03-29T18:20:18.033Z,1234.00
2023-03-29T18:24:18.057Z,1230.00
2023-03-29T18:28:18.119Z,1236.00
2023-03-29T18:32:18.202Z,1220.00
2023-03-29T18:36:18.237Z,1198.00
2023-03-29T18:40:18.273Z,1203.00
2023-03-29T18:44:18.298Z,1169.00
2023-03-29T18:48:18.355Z,1179.00
2023-03-29T18:52:18.415Z,1144.00
2023-03-29T18:56:18.477Z,1132.00
2023-03-29T19:00:18.491Z,1164.00
2023-03-29T19:04:18.577Z,1108.00
2023-03-29T19:08:18.606Z,1083.00
2023-03-29T19:12:18.678Z,1037.00
2023-03-29T19:16:18.866Z,1066.00
2023-03-29T19:20:18.882Z,1040.00
2023-03-29T19:24:18.918Z,1029.00
2023-03-29T19:28:19.011Z,1056.00
2023-03-29T19:32:19.073Z,1042.00
2023-03-29T19:36:19.162Z,1032.00
2023-03-29T19:40:19.324Z,1055.00
2023-03-29T19:44:19.338Z,993.00
2023-03-29T19:48:23.051Z,997.00
2023-03-29T19:52:19.411Z,978.00
2023-03-29T19:56:19.360Z,985.00
2023-03-29T20:00:19.353Z,992.00
2023-03-29T20:04:19.306Z,925.00
2023-03-29T20:08:19.253Z,936.00
2023-03-29T20:12:19.217Z,926.00
2023-03-29T20:16:19.276Z,922.00
2023-03-29T20:20:19.365Z,922.00
2023-03-29T20:24:19.490Z,880.00
2023-03-29T20:28:19.594Z,879.00
2023-03-29T20:32:19.828Z,858.00
2023-03-29T20:36:19.955Z,876.00
2023-03-29T20:40:20.057Z,847.00
2023-03-29T20:44:20.140Z,842.00
2023-03-29T20:48:20.280Z,855.00
2023-03-29T20:52:20.435Z,844.00
2023-03-29T20:56:20.606Z,818.00
2023-03-29T21:00:20.741Z,849.00
2023-03-29T21:04:20.872Z,861.00
2023-03-29T21:08:21.047Z,862.00
2023-03-29T21:12:21.172Z,834.00
2023-03-29T21:16:21.371Z,815.00
2023-03-29T21:20:21.535Z,847.00
2023-03-29T21:24:21.683Z,839.00
2023-03-29T21:28:21.793Z,843.00
2023-03-29T21:32:21.965Z,838.00
2023-03-29T21:36:22.122Z,826.00
2023-03-29T21:40:22.263Z,853.00
2023-03-29T21:44:22.484Z,826.00
2023-03-29T21:48:22.594Z,802.00
2023-03-29T21:52:22.733Z,809.00
2023-03-29T21:56:22.868Z,819.00
2023-03-29T22:00:23.035Z,799.00
2023-03-29T22:04:35.722Z,823.00
2023-03-29T22:08:24.088Z,805.00
2023-03-29T22:12:23.020Z,818.00
2023-03-29T22:16:23.000Z,820.00
2023-03-29T22:20:23.126Z,791.00
2023-03-29T22:24:23.240Z,788.00
2023-03-29T22:28:23.378Z,787.00
2023-03-29T22:32:23.575Z,799.00
2023-03-29T22:36:23.664Z,785.00
2023-03-29T22:40:23.873Z,771.00
2023-03-29T22:44:24.000Z,783.00
2023-03-29T22:48:24.147Z,776.00
2023-03-29T22:52:24.311Z,795.00
2023-03-29T22:56:24.437Z,802.00
2023-03-29T23:00:24.587Z,766.00
2023-03-29T23:04:24.815Z,767.00
2023-03-29T23:08:24.916Z,761.00
2023-03-29T23:12:25.057Z,736.00
2023-03-29T23:16:25.279Z,733.00
2023-03-29T23:20:25.382Z,754.00
2023-03-29T23:24:25.551Z,747.00
2023-03-29T23:28:25.696Z,733.00
2023-03-29T23:32:25.863Z,670.00
2023-03-29T23:36:26.044Z,677.00
2023-03-29T23:40:26.178Z,666.00
2023-03-29T23:44:26.305Z,679.00
2023-03-29T23:48:26.428Z,666.00
2023-03-29T23:52:26.573Z,662.00
2023-03-29T23:56:26.768Z,652.00
